Sonic Adventure (DX): Overall Rankings

Records: Times | Rings | Scores | Races | Bosses | Freestyle
Leaders: Times | Rings | Scores | Races | Bosses | Freestyle | Overall
Rank Player Percent Points Date
1 Sonicspeedruner 98.0% 336 12-17-17
2 Gamepro011 98.0% 343 12-17-17
3 DarkPolarNight 96.7% 556 12-17-17
4 Jawzun 93.2% 1171 12-17-17
5 Dashjump 91.7% 1439 12-17-17
6 DarkspinesSonic 89.9% 1753 12-17-17
7 Avento128bits 89.7% 1785 12-17-17
8 ike6252 89.5% 1816 12-17-17
9 F-Man 87.7% 2135 12-17-17
10 Coolfansonic 87.2% 2207 12-17-17
11 HyperSonic7701 84.4% 2705 12-17-17
12 TheRealShadnic 84.1% 2758 12-17-17
13 yoshifan 82.8% 2985 12-17-17
14 frankoredstrato 82.3% 3070 12-17-17
15 francisco 81.3% 3237 12-17-17
16 Marth 81.1% 3269 12-17-17
17 InferSaime 80.0% 3470 12-17-17
18 PfoSonic 79.5% 3554 12-17-17
19 Paragod 79.1% 3629 12-17-17
20 THC98 78.2% 3781 12-17-17
21 Stefan 75.8% 4188 12-17-17
22 RPGnutter 73.7% 4552 12-17-17
23 bertin 73.6% 4580 12-17-17
24 sonicam 71.5% 4933 12-17-17
25 drminus 70.0% 5193 12-17-17
26 xXMegaManXx 70.0% 5194 12-17-17
27 chainchumper 65.7% 5942 12-17-17
28 Combo 65.7% 5953 12-17-17
29 chaos shadow 65.1% 6056 12-17-17
30 SkyLights 64.4% 6166 12-17-17
31 Diamond 62.3% 6533 12-17-17
32 Auriman1 60.4% 6875 12-17-17
33 GerbilSoft 60.3% 6879 12-17-17
34 OmegaDJ 60.3% 6885 12-17-17
35 magnum12 59.5% 7020 12-17-17
36 Thorn 57.3% 7401 12-17-17
37 P1 Pause 57.2% 7425 12-17-17
38 Dekuboy 56.3% 7583 12-17-17
39 mike89 56.1% 7622 12-17-17
40 Groudon199 54.1% 7962 12-17-17
41 Dave Cramer 54.1% 7966 12-17-17
42 Parax 53.1% 8129 12-17-17
43 Shadow Jacky 53.0% 8154 12-17-17
44 Psymar 47.8% 9058 12-17-17
45 Arch 47.1% 9178 12-17-17
46 Chao_Fan 46.2% 9341 12-17-17
47 mauserman 45.2% 9505 12-17-17
48 Quartz 45.1% 9524 12-17-17
49 teamblackarms 44.3% 9655 12-17-17
50 Psyknux 43.3% 9832 12-17-17
51 James_Bertolli 43.2% 9857 12-17-17
52 NintenDan 42.8% 9917 12-17-17
53 Webber3000 42.3% 10006 12-17-17
54 Turbos 42.2% 10024 12-17-17
55 Ring Rush 41.9% 10080 12-17-17
56 Cream147 41.8% 10106 12-17-17
57 videogamemaster777 41.6% 10138 12-17-17
58 Siavash Tazari 41.5% 10157 12-17-17
59 Fr3nZy 41.4% 10170 12-17-17
60 buddychaos0415 40.9% 10252 12-17-17
61 SadisticMystic 40.4% 10348 12-17-17
62 ethmar 39.7% 10458 12-17-17
63 eggFL 39.5% 10490 12-17-17
64 SB737 38.0% 10765 12-17-17
65 supersonic465 37.5% 10838 12-17-17
66 supersonicfan 36.9% 10955 12-17-17
67 FuzZerd 35.6% 11166 12-17-17
68 Aitamen 35.2% 11252 12-17-17
69 BigAL49 34.8% 11309 12-17-17
70 elecmouse101 34.7% 11323 12-17-17
71 danieldude 34.7% 11336 12-17-17
72 metanightmare22 33.6% 11516 12-17-17
73 Austinf 33.6% 11530 12-17-17
74 Cyan Ryan 33.4% 11553 12-17-17
75 dabestgamer 33.1% 11606 12-17-17
76 MiStEr_ShAoLiN 33.0% 11618 12-17-17
77 Andrea Ritsu 32.3% 11746 12-17-17
78 itsPersonnal 31.8% 11838 12-17-17
79 Cybrax 31.1% 11953 12-17-17
80 SilvertheAlmighty 30.9% 11983 12-17-17
81 JamminX42 30.9% 11997 12-17-17
82 Nim 30.7% 12031 12-17-17
83 VMU Player Banned 29.1% 12311 12-17-17
84 Staf 28.7% 12378 12-17-17
85 Omega Rafael Santos 28.5% 12409 12-17-17
86 The T 28.2% 12455 12-17-17
87 EngiNerd 28.0% 12492 12-17-17
88 lordmetalsonic 27.6% 12568 12-17-17
89 welldooder64 27.0% 12669 12-17-17
90 Hipertails12 26.9% 12678 12-17-17
91 GreatStar 26.7% 12712 12-17-17
92 The Great Lord Mick 26.6% 12738 12-17-17
93 Sondow 26.5% 12762 12-17-17
94 Mastakirby 26.4% 12770 12-17-17
95 LinksDarkArrows 26.3% 12785 12-17-17
96 Skylace 25.3% 12959 12-17-17
97 a_moustache 24.2% 13154 12-17-17
98 Rolken 23.8% 13216 12-17-17
99 Kogen Player Banned 22.2% 13509 12-17-17
100 Spinballwizard 22.1% 13511 12-17-17
100 Xia 22.1% 13511 12-17-17
102 Twilisailor 21.7% 13584 12-17-17
103 f0rever_zer0 21.6% 13600 12-17-17
104 Cutiefox 21.4% 13640 12-17-17
105 Don 21.4% 13647 12-17-17
106 Game_Complete 21.3% 13658 12-17-17
107 Miles9999 21.2% 13678 12-17-17
108 andres430 20.8% 13742 12-17-17
109 Cruizer 20.5% 13793 12-17-17
110 iSonicKid2K 20.4% 13806 12-17-17
111 SADXTryHard 20.2% 13852 12-17-17
112 GarnetPrincess 19.7% 13933 12-17-17
113 AxlThunder 19.0% 14054 12-17-17
114 Niczur 19.0% 14065 12-17-17
115 knuckles_sonic8 18.6% 14128 12-17-17
116 The Knuckles Chao 18.4% 14163 12-17-17
117 KinkyCadence 18.2% 14188 12-17-17
118 Team_Yoshi 17.9% 14247 12-17-17
119 Termon 17.9% 14251 12-17-17
120 LittleBigness 17.8% 14264 12-17-17
121 SonicWinDX 17.6% 14295 12-17-17
122 FoxBoy 17.6% 14304 12-17-17
123 Drakodan 16.9% 14427 12-17-17
124 N 16.5% 14499 12-17-17
125 Sonic Singularity 15.9% 14591 12-17-17
126 Pokemonmaster888 15.6% 14640 12-17-17
127 SilverSonic 14.7% 14812 12-17-17
128 MPit08 14.5% 14836 12-17-17
129 WeegeeZV 14.3% 14877 12-17-17
130 koinu93 14.2% 14898 12-17-17
131 Mo Player Banned 14.1% 14913 12-17-17
132 HyperSonic64 13.7% 14982 12-17-17
133 Cod4Scopes 13.6% 14991 12-17-17
134 booo95 13.5% 15008 12-17-17
135 Chawkk 13.4% 15032 12-17-17
136 paulie9990 13.4% 15033 12-17-17
137 Jerzia 13.4% 15035 12-17-17
138 SuperSonic101 13.1% 15076 12-17-17
139 Maxinfamily 13.0% 15091 12-17-17
140 Hunters13 13.0% 15096 12-17-17
141 LilZero 12.7% 15151 12-17-17
142 Kanimayo_Jp 12.6% 15163 12-17-17
143 BrokenArthritis 12.5% 15188 12-17-17
144 PsyBorg 12.4% 15202 12-17-17
145 Flying Fox 12.3% 15215 12-17-17
146 Therio 12.0% 15269 12-17-17
147 sonicspeed 11.9% 15285 12-17-17
148 douglas 11.8% 15303 12-17-17
149 Matt_TY 11.5% 15366 12-17-17
149 thewaytodawnnn 11.5% 15366 12-17-17
151 Cooljay 10.9% 15464 12-17-17
152 SuperBlitzCraig 10.7% 15495 12-17-17
153 SeaWolf 10.7% 15501 12-17-17
154 joecoolgames 10.7% 15502 12-17-17
155 videogamer1014 10.6% 15524 12-17-17
156 AC-Tygo 10.3% 15570 12-17-17
157 welshmoose05 10.2% 15579 12-17-17
158 OddCook 10.0% 15617 12-17-17
159 crazy1993 10.0% 15628 12-17-17
160 TFEC Headshot 9.9% 15641 12-17-17
161 Mcshuggets 9.7% 15669 12-17-17
162 niscool 9.5% 15715 12-17-17
163 Irregular Zero 9.3% 15745 12-17-17
163 Mariobutch 9.3% 15745 12-17-17
165 SonicAD 9.2% 15756 12-17-17
166 nuckrieg 9.2% 15757 12-17-17
167 Shadowthegreat 9.1% 15780 12-17-17
168 superjupi 9.0% 15785 12-17-17
169 SirTobbii 9.0% 15790 12-17-17
170 sonamyfan666 8.8% 15833 12-17-17
171 iarebored 8.7% 15847 12-17-17
172 Powerjohn25 8.7% 15851 12-17-17
173 SaviourDC 8.6% 15857 12-17-17
174 SonicKnuckles 8.6% 15861 12-17-17
175 adf 8.3% 15920 12-17-17
176 Werey 8.3% 15922 12-17-17
177 Megaman EXE565 8.0% 15963 12-17-17
178 Platformer 7.6% 16028 12-17-17
179 ArcticDragon 7.6% 16043 12-17-17
180 timpkmn89 7.5% 16050 12-17-17
181 wheatrich 7.4% 16070 12-17-17
182 Swift Hobo 7.3% 16082 12-17-17
183 FocusSight64 7.3% 16085 12-17-17
184 ModifiedMonkee 7.3% 16096 12-17-17
185 Rickyman48 7.1% 16117 12-17-17
186 KitsuneYamaro 7.1% 16127 12-17-17
187 Triseena 6.9% 16159 12-17-17
188 dShadow 6.6% 16208 12-17-17
189 Destroyer121121 6.5% 16221 12-17-17
190 Starlight Sable 6.5% 16226 12-17-17
191 CyberShadow 6.5% 16227 12-17-17
192 slade23 6.5% 16230 12-17-17
193 IsisDazs 6.3% 16258 12-17-17
194 BlankTH 6.1% 16294 12-17-17
195 Monkeh 6.1% 16298 12-17-17
196 Badlex727 5.9% 16325 12-17-17
197 Redd 5.9% 16327 12-17-17
198 SonicU260 5.9% 16328 12-17-17
199 Richied 5.8% 16349 12-17-17
200 DaDude 5.7% 16363 12-17-17
201 Crispian 5.7% 16371 12-17-17
202 Swinkly 5.7% 16372 12-17-17
203 sonicd5 5.6% 16387 12-17-17
203 Vicklaw 5.6% 16387 12-17-17
205 Zip 5.6% 16391 12-17-17
206 ALundstrom10 5.2% 16454 12-17-17
207 VeritasDL 5.2% 16458 12-17-17
208 tal39h 5.2% 16460 12-17-17
209 Kirbymon30 5.1% 16479 12-17-17
210 soniccoloursunleashed 5.0% 16489 12-17-17
211 Drflash55 5.0% 16493 12-17-17
212 Bass 4.9% 16507 12-17-17
213 neaolas 4.8% 16527 12-17-17
214 superiorsonic 4.7% 16534 12-17-17
215 zapp 4.7% 16544 12-17-17
216 Yish 4.7% 16548 12-17-17
217 UninspiredUsername 4.6% 16555 12-17-17
218 Sonicsuperstar1 4.5% 16569 12-17-17
219 gamefreak1292 4.5% 16576 12-17-17
220 Sora_yx 4.3% 16609 12-17-17
221 Chaos_Overlord 4.2% 16629 12-17-17
222 TakaRikka 4.0% 16654 12-17-17
223 Valfore 4.0% 16657 12-17-17
224 Dage4Aquatic 3.9% 16683 12-17-17
225 ShinigamiMachine 3.8% 16695 12-17-17
226 Regano1000 3.8% 16701 12-17-17
227 MK 3.7% 16715 12-17-17
228 Ace747 3.6% 16732 12-17-17
229 Jua Rever 3.5% 16754 12-17-17
230 Illidan 3.1% 16810 12-17-17
231 HHNNBBHHN 3.1% 16812 12-17-17
232 Sithwarrior26 3.1% 16815 12-17-17
233 Venick409 3.1% 16816 12-17-17
234 Brian_pso 3.1% 16817 12-17-17
234 nman36 3.1% 16817 12-17-17
236 Egor305 3.0% 16835 12-17-17
237 SkyBon 3.0% 16839 12-17-17
238 TheChaosEmeraIds 3.0% 16844 12-17-17
239 ingx24 2.9% 16845 12-17-17
240 dekki1234 2.9% 16854 12-17-17
241 Nickson98 2.9% 16856 12-17-17
242 Fozer 2.8% 16868 12-17-17
243 Colomb_30 2.8% 16870 12-17-17
244 FSSRandomvids 2.8% 16875 12-17-17
245 Aiko 2.7% 16888 12-17-17
246 sonic29887 2.7% 16890 12-17-17
247 TheUltraBlur 2.6% 16899 12-17-17
248 1stKirbyever 2.6% 16904 12-17-17
249 TimTH 2.5% 16919 12-17-17
250 Th4tN1nj4Turtl3 2.4% 16939 12-17-17
251 Cort_pso 2.3% 16953 12-17-17
252 ieatatsonic 2.3% 16956 12-17-17
253 Mariosonic15 2.3% 16963 12-17-17
254 Doom-9 2.2% 16968 12-17-17
255 Artie 2.2% 16975 12-17-17
256 MStitomix 2.1% 16983 12-17-17
257 HermitHelmet 2.1% 16986 12-17-17
258 Got4n 2.0% 17004 12-17-17
259 SuperSonic71087 2.0% 17008 12-17-17
260 Jose_15 2.0% 17016 12-17-17
261 Questionguy555 1.9% 17022 12-17-17
262 djmat 1.9% 17034 12-17-17
263 SuperSonicfan9595 1.8% 17036 12-17-17
264 sonicandamy Player Banned 1.7% 17053 12-17-17
265 Heroes_Hater 1.7% 17057 12-17-17
266 Paixii 1.7% 17065 12-17-17
267 LancexExWx 1.7% 17066 12-17-17
268 son1cgu1tar 1.6% 17070 12-17-17
269 BallzeH 1.6% 17080 12-17-17
269 Mankster101 1.6% 17080 12-17-17
271 BecauseWarAnvil 1.5% 17089 12-17-17
272 Jamixesa 1.5% 17093 12-17-17
273 SpiritDragon1995 1.5% 17101 12-17-17
274 Crydio 1.4% 17106 12-17-17
275 Shanekilz 1.4% 17107 12-17-17
276 MarewBFN 1.4% 17121 12-17-17
277 stanski 1.3% 17125 12-17-17
278 Sonique Hedgehog 1.3% 17129 12-17-17
279 p0ker 1.3% 17139 12-17-17
280 Blue Infamy 1.2% 17141 12-17-17
281 ErrortheCucco 1.2% 17152 12-17-17
282 Rikum22 1.2% 17155 12-17-17
283 Arthas 1.1% 17158 12-17-17
284 sonic1001 1.1% 17163 12-17-17
285 AJSIV 1.1% 17170 12-17-17
285 syco1098 1.1% 17170 12-17-17
285 WingedInsignia 1.1% 17170 12-17-17
288 Sonic the Hedgehod16 1.1% 17173 12-17-17
289 ASINISTERTACO 1.0% 17180 12-17-17
290 Calfd 1.0% 17184 12-17-17
291 sonicfan9 1.0% 17185 12-17-17
292 BlackArmsShadow 0.9% 17194 12-17-17
293 themachoman202 0.9% 17195 12-17-17
294 darkstarblaze 0.9% 17200 12-17-17
295 Fivavoa 0.9% 17204 12-17-17
295 shadowblast63 Player Banned 0.9% 17204 12-17-17
297 Greham Adelphis 0.9% 17205 12-17-17
298 Mr. Jones 0.9% 17206 12-17-17
299 MastaToken 0.9% 17208 12-17-17
300 arcfx1985 0.8% 17209 12-17-17
300 Ben1502 0.8% 17209 12-17-17
302 ptorflaxendrosis 0.8% 17211 12-17-17
303 TommyeAsY 0.8% 17213 12-17-17
304 FlandreScarlet9999vr 0.8% 17217 12-17-17
305 Gvozdevik 0.8% 17218 12-17-17
306 Knuckles 0.8% 17219 12-17-17
306 Zeldocto 0.8% 17219 12-17-17
308 KaM Mark MaK 0.8% 17221 12-17-17
309 BeeAwwb 0.8% 17223 12-17-17
310 ShadouZaHejjihoggu 0.7% 17229 12-17-17
311 Sarger001 0.7% 17237 12-17-17
312 dragondragon18 0.7% 17239 12-17-17
312 Sonic The Star 0.7% 17239 12-17-17
312 Sonic62 0.7% 17239 12-17-17
315 darkersupershadic 0.7% 17240 12-17-17
316 Grady219 0.6% 17245 12-17-17
317 Shadygamerfreak 0.6% 17246 12-17-17
318 SonicK100 0.6% 17247 12-17-17
319 BioShadow 0.6% 17248 12-17-17
320 Sogeking 0.6% 17249 12-17-17
321 Jawaah 0.6% 17254 12-17-17
322 Antek 0.6% 17258 12-17-17
323 SilverK 0.6% 17259 12-17-17
324 Klaus 0.6% 17260 12-17-17
325 SpinDashMaster 0.5% 17265 12-17-17
326 Videogamer123 0.5% 17269 12-17-17
327 oTaiIilLsS 0.4% 17283 12-17-17
328 isaihtb11 0.4% 17284 12-17-17
329 OhNoes! 0.4% 17287 12-17-17
330 zaktu40 0.4% 17288 12-17-17
331 Mad Andy 0.4% 17290 12-17-17
331 S-MS32X-S 0.4% 17290 12-17-17
333 gaara1234 0.4% 17291 12-17-17
334 gamed00d 0.4% 17292 12-17-17
335 Mister_Slick 0.3% 17303 12-17-17
336 Sonic06Fan 0.3% 17306 12-17-17
337 Rush Hero 0.3% 17307 12-17-17
338 SonicMega167 0.3% 17312 12-17-17
339 Iwannabelink 0.2% 17314 12-17-17
340 sonknuck23 0.2% 17317 12-17-17
341 gamer1245 0.2% 17326 12-17-17
342 DanielTheFalcon 0.2% 17327 12-17-17
343 Burningskull123 0.1% 17331 12-17-17
344 Sonicontherun 0.1% 17342 12-17-17
345 Lil_Dude 0.1% 17347 12-17-17
346 antiwwe 0.0% 17348 12-17-17
347 Tyrouble 0.0% 17350 12-17-17
348 Genuine Hedgehog 0.0% 17351 12-17-17
348 SonataSpinDash 0.0% 17351 12-17-17
350 Cbwade15 0.0% 17355 12-17-17
351 MegabombBlade 0.0% 17365 12-17-17
351 neji_hyuuga 0.0% 17365 12-17-17
351 Over 0.0% 17365 12-17-17
351 sdj6707 Player Banned 0.0% 17365 12-17-17
351 Tran Sonic Fan Player Banned 0.0% 17365 12-17-17

This page is using the New Data Table System. [FUTURE]

Game ID: 3 | Category ID: 10
Hits: 4,237 | Hits This Month: 22 | DB Calls: 23 | Mem Usage: 5.48 MB | Time: 0.19s | Printable

The Sonic Center v3.9
Copyright 2003-2011 by The Sonic Center Team.